Terminal Aerodrome Forecast
Issued by NWS Central Illinois

Home | Current Version | Previous Version | Text Only | Print | Product List | Glossary On
Versions: 1 2 3 4 5 6 7 8 9 10 11 12 13 14 15
828
FTUS43 KILX 091131
TAFPIA
TAF
KPIA 091131Z 0912/1012 32010G18KT 4SM -SHSN BR OVC020
      TEMPO 0912/0915 2SM -SHSN BR
     FM091600 31015G22KT 6SM -SHSN OVC025
     FM100100 31014KT P6SM BKN025=

USA.gov is the U.S. government's official web portal to all federal, state and local government web resources and services.